Time;durP1;ratioP1;P1;durP2;ratioP2;P2;SDS_P1;SDS_P2;PMS_P1;PMS_P2;Temp;Humidity;BMP_temperature;BMP_pressure;BME280_temperature;BME280_humidity;BME280_pressure;Samples;Min_cycle;Max_cycle;Signal;HPM_P1;HPM_P2
2021/06/30 00:02:00;;;;;;;2.75;2.28;;;14.40;99.90;;;;;;5032832;28;20021;-73
2021/06/30 00:04:26;;;;;;;7.22;2.90;;;14.40;99.90;;;;;;5026699;28;20371;-72
2021/06/30 00:06:52;;;;;;;8.60;3.65;;;14.30;99.90;;;;;;5032779;28;20025;-72
2021/06/30 00:09:17;;;;;;;7.57;3.00;;;14.30;99.90;;;;;;5041051;28;20366;-71
2021/06/30 00:11:44;;;;;;;4.28;3.17;;;14.30;99.90;;;;;;5041259;28;20024;-73
2021/06/30 00:14:12;;;;;;;2.75;2.55;;;14.30;99.90;;;;;;5045080;28;20478;-72
2021/06/30 00:16:39;;;;;;;7.90;3.03;;;14.30;99.90;;;;;;5032227;28;20482;-72
2021/06/30 00:19:10;;;;;;;8.68;3.53;;;14.30;99.90;;;;;;5031988;28;20486;-72
2021/06/30 00:21:35;;;;;;;5.70;3.60;;;14.30;99.90;;;;;;5033822;28;20052;-73
2021/06/30 00:24:01;;;;;;;4.35;2.70;;;14.30;99.90;;;;;;5033793;28;20053;-73
2021/06/30 00:26:27;;;;;;;6.60;3.13;;;14.30;99.90;;;;;;5034022;28;20083;-73
2021/06/30 00:28:52;;;;;;;4.30;3.47;;;14.20;99.90;;;;;;5053632;28;20024;-73
2021/06/30 00:31:18;;;;;;;7.47;4.05;;;14.20;99.90;;;;;;5040461;28;20132;-74
2021/06/30 00:33:44;;;;;;;10.65;4.90;;;14.20;99.90;;;;;;5033410;28;20033;-73
2021/06/30 00:36:11;;;;;;;6.88;4.05;;;14.20;99.90;;;;;;5032784;28;20060;-73
2021/06/30 00:38:37;;;;;;;5.32;3.22;;;14.20;99.90;;;;;;5036470;28;20021;-73
2021/06/30 00:41:03;;;;;;;8.40;4.00;;;14.20;99.90;;;;;;5041063;28;20040;-73
2021/06/30 00:43:29;;;;;;;11.23;3.92;;;14.20;99.90;;;;;;5044758;28;20379;-74
2021/06/30 00:45:54;;;;;;;7.20;3.80;;;14.20;99.90;;;;;;5033693;28;20032;-74
2021/06/30 00:48:20;;;;;;;4.47;3.65;;;14.20;99.90;;;;;;5042093;28;20033;-73
2021/06/30 00:50:46;;;;;;;7.18;3.63;;;14.20;99.90;;;;;;5030229;28;20111;-73
2021/06/30 00:53:12;;;;;;;6.28;4.50;;;14.20;99.90;;;;;;5046138;28;20036;-73
2021/06/30 00:55:38;;;;;;;5.00;4.30;;;14.20;99.90;;;;;;5055007;28;20113;-73
2021/06/30 00:58:04;;;;;;;14.38;4.85;;;14.20;99.90;;;;;;5049997;28;20068;-74
2021/06/30 01:00:30;;;;;;;5.50;4.07;;;14.20;99.90;;;;;;5051626;28;20029;-73
2021/06/30 01:02:56;;;;;;;9.07;4.40;;;14.20;99.90;;;;;;5052092;28;20025;-74
2021/06/30 01:05:22;;;;;;;8.68;4.22;;;14.30;99.90;;;;;;5058991;28;20417;-73
2021/06/30 01:07:48;;;;;;;7.03;3.67;;;14.30;99.90;;;;;;5059546;28;20060;-75
2021/06/30 01:10:14;;;;;;;8.73;4.18;;;14.30;99.90;;;;;;5048562;28;20517;-73
2021/06/30 01:12:39;;;;;;;5.90;3.95;;;14.30;99.90;;;;;;5065641;28;20010;-75
2021/06/30 01:15:07;;;;;;;3.97;3.60;;;14.30;99.90;;;;;;5068175;28;20036;-75
2021/06/30 01:17:33;;;;;;;4.43;3.75;;;14.30;99.90;;;;;;5060675;28;20017;-75
2021/06/30 01:20:00;;;;;;;6.68;4.38;;;14.20;99.90;;;;;;5061187;28;20040;-73
2021/06/30 01:22:26;;;;;;;5.93;4.07;;;14.30;99.90;;;;;;5045819;28;20013;-73
2021/06/30 01:24:53;;;;;;;6.57;3.72;;;14.20;99.90;;;;;;5044709;28;20075;-74
2021/06/30 01:27:22;;;;;;;4.65;3.80;;;14.20;99.90;;;;;;5042053;28;20032;-73
2021/06/30 01:29:48;;;;;;;5.90;3.75;;;14.30;99.90;;;;;;5039846;28;20512;-72
2021/06/30 01:32:14;;;;;;;7.28;4.65;;;14.30;99.90;;;;;;5039918;28;20026;-73
2021/06/30 01:34:40;;;;;;;13.77;4.40;;;14.30;99.90;;;;;;5037932;28;20029;-74
2021/06/30 01:37:06;;;;;;;5.38;3.42;;;14.30;99.90;;;;;;5037372;28;20490;-73
2021/06/30 01:39:32;;;;;;;7.07;3.95;;;14.30;99.90;;;;;;5040281;28;20393;-73
2021/06/30 01:41:57;;;;;;;6.22;3.83;;;14.40;99.90;;;;;;5039496;28;20059;-73
2021/06/30 01:44:23;;;;;;;7.43;3.95;;;14.40;99.90;;;;;;5037022;28;20029;-73
2021/06/30 01:46:49;;;;;;;5.60;3.92;;;14.40;99.90;;;;;;5031033;28;20029;-73
2021/06/30 01:49:15;;;;;;;3.95;3.47;;;14.50;99.90;;;;;;5035720;28;20026;-74
2021/06/30 01:51:41;;;;;;;7.75;3.35;;;14.50;99.90;;;;;;5039871;28;20025;-73
2021/06/30 01:54:13;;;;;;;5.10;3.92;;;14.40;99.90;;;;;;5044383;28;20037;-73
2021/06/30 01:56:39;;;;;;;6.90;3.50;;;14.40;99.90;;;;;;5036700;28;20029;-73
2021/06/30 01:59:13;;;;;;;6.50;3.35;;;14.40;99.90;;;;;;5040787;28;20017;-73
2021/06/30 02:01:41;;;;;;;4.13;3.47;;;14.40;99.90;;;;;;5036864;28;20367;-73
2021/06/30 02:04:08;;;;;;;3.75;3.45;;;14.50;99.90;;;;;;5034119;28;20474;-73
2021/06/30 02:06:42;;;;;;;6.63;4.57;;;14.40;99.90;;;;;;5036022;28;20025;-74
2021/06/30 02:09:10;;;;;;;11.27;4.25;;;14.40;99.90;;;;;;5034925;28;20120;-73
2021/06/30 02:11:36;;;;;;;9.80;3.60;;;14.40;99.90;;;;;;5034459;28;20030;-73
2021/06/30 02:14:06;;;;;;;4.75;3.45;;;14.40;99.90;;;;;;5035597;28;20025;-72
2021/06/30 02:16:33;;;;;;;4.47;3.20;;;14.40;99.90;;;;;;5034384;28;20018;-73
2021/06/30 02:19:04;;;;;;;7.88;3.65;;;14.40;99.90;;;;;;5035562;28;20064;-73
2021/06/30 02:21:30;;;;;;;4.78;3.47;;;14.40;99.90;;;;;;5041156;28;20017;-73
2021/06/30 02:23:56;;;;;;;6.43;3.92;;;14.40;99.90;;;;;;5034069;28;20038;-73
2021/06/30 02:26:21;;;;;;;10.93;4.00;;;14.40;99.90;;;;;;5035579;28;20036;-73
2021/06/30 02:28:47;;;;;;;4.90;3.53;;;14.40;99.90;;;;;;5034728;28;20021;-73
2021/06/30 02:31:12;;;;;;;5.20;4.10;;;14.40;99.90;;;;;;5043541;28;20033;-73
2021/06/30 02:33:38;;;;;;;7.43;4.25;;;14.40;99.90;;;;;;5042276;28;20033;-73
2021/06/30 02:36:04;;;;;;;6.28;4.38;;;14.40;99.90;;;;;;5034294;28;20131;-73
2021/06/30 02:38:29;;;;;;;5.55;3.40;;;14.40;99.90;;;;;;5037488;28;20026;-72
2021/06/30 02:40:55;;;;;;;6.57;3.92;;;14.40;99.90;;;;;;5035621;28;20022;-73
2021/06/30 02:43:21;;;;;;;5.95;3.75;;;14.30;99.90;;;;;;5034328;28;20052;-73
2021/06/30 02:45:46;;;;;;;7.32;3.70;;;14.30;99.90;;;;;;5035141;28;20036;-72
2021/06/30 02:48:12;;;;;;;5.82;4.95;;;14.30;99.90;;;;;;5034998;28;20438;-72
2021/06/30 02:50:37;;;;;;;6.43;3.47;;;14.30;99.90;;;;;;5035563;28;20039;-73
2021/06/30 02:53:03;;;;;;;5.32;3.47;;;14.40;99.90;;;;;;5041037;28;20433;-73
2021/06/30 02:55:29;;;;;;;10.30;4.32;;;14.30;99.90;;;;;;5035226;28;20087;-74
2021/06/30 02:57:54;;;;;;;7.75;3.50;;;14.20;99.90;;;;;;5042176;28;20061;-73
2021/06/30 03:00:22;;;;;;;8.07;3.75;;;14.20;99.90;;;;;;5026280;28;20164;-73
2021/06/30 03:02:49;;;;;;;3.50;3.03;;;14.30;99.90;;;;;;5040646;28;20048;-73
2021/06/30 03:05:15;;;;;;;3.80;3.22;;;14.30;99.90;;;;;;5032675;28;20080;-74
2021/06/30 03:07:40;;;;;;;3.90;3.40;;;14.20;99.90;;;;;;5035162;28;20531;-72
2021/06/30 03:10:08;;;;;;;6.60;3.30;;;14.20;99.90;;;;;;5034625;28;20123;-72
2021/06/30 03:12:34;;;;;;;4.55;2.90;;;14.20;99.90;;;;;;5051480;28;20519;-73
2021/06/30 03:15:00;;;;;;;5.68;3.28;;;14.20;99.90;;;;;;5033901;28;20036;-72
2021/06/30 03:17:26;;;;;;;5.80;2.90;;;14.20;99.90;;;;;;5034767;28;20032;-73
2021/06/30 03:19:52;;;;;;;6.50;3.35;;;14.20;99.90;;;;;;5034287;28;20022;-73
2021/06/30 03:22:17;;;;;;;5.78;3.22;;;14.30;99.90;;;;;;5035122;28;20107;-73
2021/06/30 03:24:43;;;;;;;4.03;3.30;;;14.30;99.90;;;;;;5033425;28;20033;-73
2021/06/30 03:27:08;;;;;;;4.78;3.47;;;14.20;99.90;;;;;;5035003;28;20044;-73
2021/06/30 03:29:34;;;;;;;4.18;3.40;;;14.30;99.90;;;;;;5032463;28;20030;-72
2021/06/30 03:32:00;;;;;;;5.75;3.13;;;14.30;99.90;;;;;;5034781;28;20033;-74
2021/06/30 03:34:26;;;;;;;5.13;3.50;;;14.30;99.90;;;;;;5029145;28;20534;-72
2021/06/30 03:36:52;;;;;;;5.60;3.78;;;14.20;99.90;;;;;;5020810;28;20128;-72
2021/06/30 03:39:17;;;;;;;5.28;3.70;;;14.20;99.90;;;;;;5034165;28;20117;-73
2021/06/30 03:41:43;;;;;;;4.75;3.50;;;14.20;99.90;;;;;;5036787;28;20083;-73
2021/06/30 03:44:09;;;;;;;5.15;3.03;;;14.20;99.90;;;;;;5051124;28;20072;-73
2021/06/30 03:46:34;;;;;;;5.40;3.38;;;14.20;99.90;;;;;;5033288;28;20038;-72
2021/06/30 03:49:00;;;;;;;6.15;3.63;;;14.30;99.90;;;;;;5035096;28;20091;-72
2021/06/30 03:51:25;;;;;;;5.15;3.13;;;14.30;99.90;;;;;;5026544;28;20379;-72
2021/06/30 03:53:51;;;;;;;4.22;2.70;;;14.30;99.90;;;;;;5024838;28;20031;-72
2021/06/30 03:56:16;;;;;;;5.13;2.65;;;14.30;99.90;;;;;;5039982;28;20389;-73
2021/06/30 03:58:45;;;;;;;5.53;3.00;;;14.30;99.90;;;;;;5044708;28;20018;-73
2021/06/30 04:01:11;;;;;;;4.22;2.80;;;14.20;99.90;;;;;;5050173;28;20018;-73
2021/06/30 04:03:36;;;;;;;8.82;4.68;;;14.20;99.90;;;;;;5050673;28;20028;-72
2021/06/30 04:06:02;;;;;;;3.88;3.17;;;14.20;99.90;;;;;;5050944;28;20029;-72
2021/06/30 04:08:27;;;;;;;8.75;3.67;;;14.10;99.90;;;;;;5052044;28;20037;-72
2021/06/30 04:10:53;;;;;;;10.02;4.28;;;14.10;99.90;;;;;;5051718;28;20032;-74
2021/06/30 04:13:19;;;;;;;5.05;3.70;;;14.10;99.90;;;;;;5061194;28;20035;-73
2021/06/30 04:15:44;;;;;;;7.65;3.80;;;14.10;99.90;;;;;;5072012;28;20016;-75
2021/06/30 04:18:10;;;;;;;8.52;4.75;;;14.10;99.90;;;;;;5057450;28;20017;-76
2021/06/30 04:20:36;;;;;;;8.02;3.92;;;14.00;99.90;;;;;;5058113;28;20044;-77
2021/06/30 04:23:01;;;;;;;10.05;3.70;;;14.00;99.90;;;;;;5037484;28;20044;-76
2021/06/30 04:25:27;;;;;;;5.13;3.95;;;14.00;99.90;;;;;;5054673;28;20435;-71
2021/06/30 04:27:52;;;;;;;9.15;4.38;;;14.00;99.90;;;;;;5041875;28;20033;-73
2021/06/30 04:30:18;;;;;;;7.32;4.40;;;14.00;99.90;;;;;;5040138;28;20056;-73
2021/06/30 04:32:44;;;;;;;4.72;4.13;;;14.10;99.90;;;;;;5038063;28;20048;-73
2021/06/30 04:35:10;;;;;;;10.32;5.22;;;14.00;99.90;;;;;;5036232;28;20029;-73
2021/06/30 04:37:36;;;;;;;9.90;5.72;;;14.00;99.90;;;;;;5035967;28;20041;-72
2021/06/30 04:40:04;;;;;;;11.52;5.32;;;13.90;99.90;;;;;;5046986;28;20068;-72
2021/06/30 04:42:30;;;;;;;16.20;5.90;;;13.90;99.90;;;;;;5028138;28;20072;-73
2021/06/30 04:44:55;;;;;;;14.52;6.95;;;13.80;99.90;;;;;;5031573;28;20033;-74
2021/06/30 04:47:21;;;;;;;16.77;7.20;;;13.80;99.90;;;;;;5032040;28;20127;-73
2021/06/30 04:49:47;;;;;;;14.43;7.57;;;13.80;99.90;;;;;;5031407;28;20242;-73
2021/06/30 04:52:12;;;;;;;19.08;7.57;;;13.80;99.90;;;;;;5036803;28;20032;-73
2021/06/30 04:54:38;;;;;;;17.52;8.02;;;13.80;99.90;;;;;;5048097;28;20044;-73
2021/06/30 04:57:04;;;;;;;11.80;7.93;;;13.80;99.90;;;;;;5046092;28;20017;-74
2021/06/30 04:59:30;;;;;;;16.75;8.48;;;13.70;99.90;;;;;;5036933;28;20124;-73
2021/06/30 05:01:55;;;;;;;15.88;8.85;;;13.70;99.90;;;;;;5042004;28;20076;-73
2021/06/30 05:04:21;;;;;;;24.92;8.68;;;13.70;99.90;;;;;;5052163;28;20489;-74
2021/06/30 05:06:47;;;;;;;13.73;7.90;;;13.70;99.90;;;;;;5037679;28;20029;-73
2021/06/30 05:09:13;;;;;;;15.68;7.97;;;13.60;99.90;;;;;;5043872;28;20393;-73
2021/06/30 05:11:39;;;;;;;18.17;7.28;;;13.70;99.90;;;;;;5042334;28;20024;-73
2021/06/30 05:14:05;;;;;;;11.50;7.35;;;13.70;99.90;;;;;;5039045;28;20033;-74
2021/06/30 05:16:30;;;;;;;14.95;8.70;;;13.60;99.90;;;;;;5032021;28;20021;-73
2021/06/30 05:18:56;;;;;;;16.00;8.50;;;13.60;99.90;;;;;;5033257;28;20029;-73
2021/06/30 05:21:22;;;;;;;14.07;8.48;;;13.60;99.90;;;;;;5031447;28;20029;-73
2021/06/30 05:23:48;;;;;;;15.63;8.02;;;13.60;99.90;;;;;;5020400;28;20025;-73
2021/06/30 05:26:14;;;;;;;14.82;8.38;;;13.70;99.90;;;;;;5048824;28;20413;-73
2021/06/30 05:28:40;;;;;;;12.07;7.95;;;13.70;99.90;;;;;;5033256;28;20033;-74
2021/06/30 05:31:06;;;;;;;16.52;8.55;;;13.70;99.90;;;;;;5037166;28;20092;-74
2021/06/30 05:33:31;;;;;;;14.32;7.72;;;13.70;99.90;;;;;;5032934;28;20037;-73
2021/06/30 05:35:57;;;;;;;22.48;7.88;;;13.60;99.90;;;;;;5032866;28;20033;-73
2021/06/30 05:38:23;;;;;;;14.55;7.00;;;13.70;99.90;;;;;;5031390;28;20165;-74
2021/06/30 05:40:49;;;;;;;11.55;7.35;;;13.70;99.90;;;;;;5036564;28;20474;-74
2021/06/30 05:43:15;;;;;;;20.50;7.93;;;13.70;99.90;;;;;;5031638;28;20032;-73
2021/06/30 05:45:44;;;;;;;14.75;7.63;;;13.70;99.90;;;;;;5026853;28;20028;-73
2021/06/30 05:48:09;;;;;;;14.48;8.02;;;13.60;99.90;;;;;;5024733;28;20025;-73
2021/06/30 05:50:35;;;;;;;13.40;8.05;;;13.60;99.90;;;;;;5032278;28;20022;-73
2021/06/30 05:53:01;;;;;;;15.25;7.55;;;13.60;99.90;;;;;;5026059;28;20029;-74
2021/06/30 05:55:27;;;;;;;11.93;7.82;;;13.60;99.90;;;;;;5030832;28;20269;-73
2021/06/30 05:57:53;;;;;;;15.48;7.07;;;13.60;99.90;;;;;;5035376;28;20061;-73
2021/06/30 06:00:21;;;;;;;18.25;8.30;;;13.70;99.90;;;;;;5041029;28;20024;-73
2021/06/30 06:02:48;;;;;;;13.63;7.57;;;13.70;99.90;;;;;;5036044;28;20140;-74
2021/06/30 06:05:14;;;;;;;15.75;8.40;;;13.70;99.90;;;;;;5026659;28;20069;-74
2021/06/30 06:07:40;;;;;;;17.88;7.70;;;13.70;99.90;;;;;;5035702;28;20022;-73
2021/06/30 06:10:08;;;;;;;17.20;9.85;;;13.70;99.90;;;;;;5035050;28;20398;-73
2021/06/30 06:12:34;;;;;;;;;;;13.70;99.90;;;;;;5036269;28;20036;-73
2021/06/30 06:14:59;;;;;;;16.17;7.97;;;13.80;99.90;;;;;;5034638;28;20373;-75
2021/06/30 06:17:25;;;;;;;11.32;6.78;;;13.80;99.90;;;;;;5036017;28;20171;-71
2021/06/30 06:19:51;;;;;;;17.05;7.65;;;13.90;99.90;;;;;;5033637;28;20038;-75
2021/06/30 06:22:17;;;;;;;16.88;7.75;;;13.80;99.90;;;;;;5033888;28;20036;-73
2021/06/30 06:24:42;;;;;;;12.10;6.95;;;13.80;99.90;;;;;;5033910;28;20493;-72
2021/06/30 06:27:08;;;;;;;11.45;7.45;;;13.80;99.90;;;;;;5034698;28;20034;-72
2021/06/30 06:29:35;;;;;;;14.20;7.93;;;13.80;99.90;;;;;;5035112;28;20112;-72
2021/06/30 06:32:02;;;;;;;12.32;7.05;;;13.80;99.90;;;;;;5034193;28;20026;-72
2021/06/30 06:34:28;;;;;;;16.35;7.28;;;13.90;99.90;;;;;;5035797;28;20068;-72
2021/06/30 06:36:54;;;;;;;15.90;7.15;;;13.80;99.90;;;;;;5033323;28;20041;-72
2021/06/30 06:39:20;;;;;;;11.98;7.32;;;13.80;99.90;;;;;;5032590;28;20108;-75
2021/06/30 06:41:47;;;;;;;14.80;6.85;;;13.80;99.90;;;;;;5034666;28;20022;-73
2021/06/30 06:44:13;;;;;;;16.80;9.20;;;13.80;99.90;;;;;;5035285;28;20490;-73
2021/06/30 06:46:39;;;;;;;12.43;7.25;;;13.80;99.90;;;;;;5031599;28;20018;-72
2021/06/30 06:49:08;;;;;;;18.20;8.25;;;13.80;99.90;;;;;;5033599;28;20051;-71
2021/06/30 06:51:38;;;;;;;20.98;7.38;;;13.80;99.90;;;;;;5033661;28;20116;-72
2021/06/30 06:54:06;;;;;;;11.45;7.18;;;13.90;99.90;;;;;;5034955;28;20022;-72
2021/06/30 06:56:32;;;;;;;14.52;7.80;;;13.90;99.90;;;;;;5035970;28;20028;-72
2021/06/30 06:58:58;;;;;;;15.05;7.57;;;13.90;99.90;;;;;;5030392;28;20034;-73
2021/06/30 07:01:25;;;;;;;15.70;7.65;;;14.00;99.90;;;;;;5033119;28;20091;-72
2021/06/30 07:03:51;;;;;;;15.90;7.82;;;14.00;99.90;;;;;;5033677;28;20505;-72
2021/06/30 07:06:17;;;;;;;16.75;7.88;;;14.00;99.90;;;;;;5041681;28;20024;-73
2021/06/30 07:08:43;;;;;;;15.57;7.95;;;14.00;99.90;;;;;;5048994;28;20044;-72
2021/06/30 07:11:09;;;;;;;12.68;8.20;;;14.10;99.90;;;;;;5033689;28;20033;-73
2021/06/30 07:13:36;;;;;;;10.77;7.60;;;14.00;99.90;;;;;;5035895;28;20117;-74
2021/06/30 07:16:04;;;;;;;13.40;7.88;;;14.10;99.90;;;;;;5034767;28;20414;-73
2021/06/30 07:18:33;;;;;;;12.38;7.45;;;14.10;99.90;;;;;;5040886;28;20067;-73
2021/06/30 07:23:44;;;;;;;15.38;7.55;;;14.10;99.90;;;;;;5052174;28;20043;-73
2021/06/30 07:26:12;;;;;;;19.48;8.43;;;14.10;99.90;;;;;;5066320;28;20041;-72
2021/06/30 07:28:41;;;;;;;11.23;8.27;;;14.10;99.90;;;;;;5052456;28;20066;-73
2021/06/30 07:31:07;;;;;;;18.60;9.15;;;14.10;99.90;;;;;;5062106;28;20064;-73
2021/06/30 07:33:34;;;;;;;19.45;9.07;;;14.20;99.90;;;;;;5057369;28;20036;-72
2021/06/30 07:36:00;;;;;;;16.33;8.75;;;14.10;99.90;;;;;;5053019;28;20029;-75
2021/06/30 07:38:26;;;;;;;14.23;8.77;;;14.10;99.90;;;;;;5053771;28;20072;-72
2021/06/30 07:40:52;;;;;;;16.33;7.57;;;14.10;99.90;;;;;;5054797;28;20048;-75
2021/06/30 07:43:17;;;;;;;22.35;8.68;;;14.10;99.90;;;;;;5055002;28;20068;-79
2021/06/30 07:45:43;;;;;;;19.55;7.78;;;14.10;99.90;;;;;;5054960;28;20026;-76
2021/06/30 07:48:09;;;;;;;20.05;9.05;;;14.10;99.90;;;;;;5056168;28;20018;-75
2021/06/30 07:50:34;;;;;;;19.40;9.00;;;14.00;99.90;;;;;;5057051;28;20017;-77
2021/06/30 07:53:01;;;;;;;20.45;10.43;;;14.00;99.90;;;;;;5044107;28;20049;-74
2021/06/30 07:55:26;;;;;;;18.85;9.25;;;13.90;99.90;;;;;;5040383;28;20140;-75
2021/06/30 07:57:53;;;;;;;39.17;12.25;;;14.00;99.90;;;;;;5038556;28;20064;-74
2021/06/30 08:00:19;;;;;;;22.20;9.07;;;14.00;99.90;;;;;;5036722;28;20402;-73
2021/06/30 08:02:44;;;;;;;19.67;9.55;;;14.00;99.90;;;;;;5034512;28;20051;-73
2021/06/30 08:05:10;;;;;;;22.33;9.43;;;14.00;99.90;;;;;;5034487;28;20359;-75
2021/06/30 08:07:36;;;;;;;26.17;9.93;;;14.10;99.90;;;;;;5032380;28;20025;-75
2021/06/30 08:10:05;;;;;;;14.55;8.55;;;14.10;99.90;;;;;;5029662;28;20021;-74
2021/06/30 08:12:30;;;;;;;18.58;9.10;;;14.10;99.90;;;;;;5042160;28;20108;-74
2021/06/30 08:14:58;;;;;;;21.98;9.30;;;14.20;99.90;;;;;;5031384;28;20171;-74
2021/06/30 08:17:24;;;;;;;18.17;9.75;;;14.30;99.90;;;;;;5030955;28;20398;-75
2021/06/30 08:19:50;;;;;;;18.45;8.90;;;14.20;99.90;;;;;;5032043;28;20032;-74
2021/06/30 08:22:16;;;;;;;17.90;8.15;;;14.30;99.90;;;;;;5034214;28;20033;-76
2021/06/30 08:24:44;;;;;;;21.08;6.90;;;14.30;99.90;;;;;;5044933;28;20496;-75
2021/06/30 08:27:12;;;;;;;17.40;7.63;;;14.30;99.90;;;;;;5042446;28;20485;-75
2021/06/30 08:29:40;;;;;;;17.05;8.18;;;14.30;99.90;;;;;;5031944;28;20021;-76
2021/06/30 08:32:06;;;;;;;18.58;7.68;;;14.20;99.90;;;;;;5032296;28;20470;-74
2021/06/30 08:34:32;;;;;;;17.38;7.80;;;14.20;99.90;;;;;;5034009;28;20044;-75
2021/06/30 08:37:05;;;;;;;14.35;7.45;;;14.20;99.90;;;;;;5046318;28;20037;-74
2021/06/30 08:39:31;;;;;;;16.52;7.75;;;14.30;99.90;;;;;;5033244;28;20041;-74
2021/06/30 08:41:57;;;;;;;14.93;7.43;;;14.20;99.90;;;;;;5034436;28;20029;-74
2021/06/30 08:44:23;;;;;;;20.08;7.53;;;14.20;99.90;;;;;;5032552;28;20089;-73
2021/06/30 08:46:51;;;;;;;21.83;8.30;;;14.10;99.90;;;;;;5033523;28;20104;-76
2021/06/30 08:49:23;;;;;;;22.33;7.97;;;14.10;99.90;;;;;;5033900;28;20077;-75
2021/06/30 08:51:51;;;;;;;16.77;7.95;;;14.10;99.90;;;;;;5031628;28;20033;-76
2021/06/30 08:54:18;;;;;;;14.85;7.75;;;14.10;99.90;;;;;;5042768;28;20044;-74
2021/06/30 08:56:45;;;;;;;15.23;7.63;;;14.10;99.90;;;;;;5036540;28;20049;-74
2021/06/30 08:59:10;;;;;;;13.35;7.75;;;14.20;99.90;;;;;;5048844;28;20051;-74
2021/06/30 09:01:44;;;;;;;18.30;8.57;;;14.20;99.90;;;;;;5030018;28;20026;-75
2021/06/30 09:04:12;;;;;;;16.20;7.93;;;14.20;99.90;;;;;;5024408;28;20482;-74
2021/06/30 09:06:37;;;;;;;16.52;8.40;;;14.20;99.90;;;;;;5027792;28;20123;-74
2021/06/30 09:09:06;;;;;;;16.60;8.13;;;14.30;99.90;;;;;;5028623;28;20057;-75
2021/06/30 09:11:33;;;;;;;21.85;9.32;;;14.30;99.90;;;;;;5029089;28;20525;-75
2021/06/30 09:14:21;;;;;;;16.23;8.35;;;14.30;99.90;;;;;;5025237;28;20036;-76
2021/06/30 09:20:04;;;;;;;16.42;8.10;;;14.40;99.90;;;;;;5027252;28;20053;-75
2021/06/30 09:22:52;;;;;;;16.48;7.90;;;14.40;99.90;;;;;;5029304;28;20125;-74
2021/06/30 09:25:28;;;;;;;;;;;14.40;99.90;;;;;;5025991;28;20033;-74
2021/06/30 09:27:54;;;;;;;14.57;6.70;;;14.40;99.90;;;;;;5032004;28;19909;-74
2021/06/30 09:30:20;;;;;;;17.20;7.65;;;14.40;99.90;;;;;;5040435;28;20041;-74
2021/06/30 09:33:00;;;;;;;19.73;7.53;;;14.50;99.90;;;;;;5040676;28;20328;-73
2021/06/30 09:35:32;;;;;;;12.63;6.70;;;14.50;99.90;;;;;;5021915;28;20457;-73
2021/06/30 09:37:58;;;;;;;20.77;7.30;;;14.50;99.90;;;;;;5036813;28;20038;-73
2021/06/30 09:40:41;;;;;;;12.32;7.32;;;14.60;99.90;;;;;;5036733;28;20465;-75
2021/06/30 09:43:22;;;;;;;17.42;7.15;;;14.60;99.90;;;;;;5034963;28;20038;-73
2021/06/30 09:45:50;;;;;;;9.75;5.93;;;14.50;99.90;;;;;;5038398;28;20056;-74
2021/06/30 09:48:30;;;;;;;13.40;6.55;;;14.50;99.90;;;;;;5034633;28;20041;-74
2021/06/30 09:50:55;;;;;;;11.68;6.05;;;14.50;99.90;;;;;;5032024;28;20111;-75
2021/06/30 09:53:50;;;;;;;13.27;6.47;;;14.50;99.90;;;;;;5034299;28;20029;-72
2021/06/30 09:56:33;;;;;;;11.07;6.40;;;14.50;99.90;;;;;;5015965;28;20080;-75
2021/06/30 09:59:22;;;;;;;15.13;6.65;;;14.40;99.90;;;;;;5028578;28;20045;-72
2021/06/30 10:02:03;;;;;;;15.10;6.35;;;14.50;99.90;;;;;;5030076;28;20041;-75
2021/06/30 10:04:30;;;;;;;11.73;6.28;;;14.60;99.90;;;;;;5035139;28;20033;-73
2021/06/30 10:06:58;;;;;;;12.83;6.67;;;14.70;99.90;;;;;;5034315;28;20026;-74
2021/06/30 10:09:24;;;;;;;16.52;6.05;;;14.70;99.90;;;;;;5034479;28;20294;-77
2021/06/30 10:12:08;;;;;;;17.55;6.53;;;14.70;99.90;;;;;;5044459;28;21173;-75
2021/06/30 10:14:35;;;;;;;15.23;7.70;;;14.80;99.90;;;;;;5029060;28;20025;-75
2021/06/30 10:17:02;;;;;;;17.35;6.75;;;14.80;99.90;;;;;;5034523;28;20470;-74
2021/06/30 10:19:28;;;;;;;19.90;6.97;;;14.80;99.90;;;;;;5028488;28;20104;-76
2021/06/30 10:21:55;;;;;;;12.52;6.43;;;14.70;99.90;;;;;;5024482;28;21914;-76
2021/06/30 10:24:21;;;;;;;22.42;7.70;;;14.70;99.90;;;;;;5021903;28;20053;-75
2021/06/30 10:26:48;;;;;;;18.48;8.23;;;14.80;99.90;;;;;;5023567;28;20071;-75
2021/06/30 10:29:15;;;;;;;13.48;7.47;;;14.80;99.90;;;;;;5021264;28;20636;-76
2021/06/30 10:31:42;;;;;;;11.43;6.70;;;14.90;99.90;;;;;;5021574;28;20045;-75
2021/06/30 10:34:13;;;;;;;9.40;6.47;;;14.90;99.90;;;;;;5020122;28;20470;-76
2021/06/30 10:36:46;;;;;;;12.50;5.97;;;15.00;99.90;;;;;;5022208;28;20385;-77
2021/06/30 10:39:36;;;;;;;14.38;6.28;;;15.00;99.90;;;;;;5021401;28;20041;-77
2021/06/30 10:42:34;;;;;;;9.50;5.35;;;15.10;99.90;;;;;;5019716;28;20038;-75
2021/06/30 10:45:24;;;;;;;6.72;4.30;;;15.10;99.90;;;;;;5038302;28;20076;-75
2021/06/30 10:47:55;;;;;;;8.30;5.20;;;15.10;99.90;;;;;;5025648;28;20040;-73
2021/06/30 10:50:30;;;;;;;12.63;4.63;;;15.20;99.90;;;;;;5042619;28;20033;-76
2021/06/30 10:53:29;;;;;;;11.48;4.88;;;15.20;99.90;;;;;;5029314;28;20080;-74
2021/06/30 10:56:03;;;;;;;15.13;6.25;;;15.20;99.90;;;;;;5027562;28;20490;-73
2021/06/30 10:58:30;;;;;;;19.48;5.38;;;15.10;99.90;;;;;;5033803;28;20358;-74
2021/06/30 11:01:00;;;;;;;8.75;6.00;;;15.20;99.90;;;;;;5030866;28;20021;-74
2021/06/30 11:03:42;;;;;;;9.18;5.40;;;15.30;99.90;;;;;;5035074;28;20518;-75
2021/06/30 11:06:14;;;;;;;13.77;6.45;;;15.30;99.90;;;;;;5041908;28;20513;-75
2021/06/30 11:08:51;;;;;;;16.70;5.63;;;15.50;99.90;;;;;;5028591;28;21146;-77
2021/06/30 11:11:26;;;;;;;9.65;5.65;;;15.40;99.90;;;;;;5024153;28;20074;-75
2021/06/30 11:13:52;;;;;;;8.25;5.72;;;15.30;99.90;;;;;;5030660;28;20056;-75
2021/06/30 11:16:36;;;;;;;27.50;8.73;;;15.40;99.90;;;;;;5038484;28;20034;-78
2021/06/30 11:19:23;;;;;;;19.40;6.88;;;15.40;99.90;;;;;;5027960;28;20473;-74
2021/06/30 11:21:59;;;;;;;22.58;11.18;;;15.40;99.90;;;;;;5016284;28;20033;-79
2021/06/30 11:24:45;;;;;;;18.70;6.85;;;15.40;99.90;;;;;;5041033;28;20056;-74
2021/06/30 11:27:26;;;;;;;21.63;6.75;;;15.50;99.90;;;;;;5029386;28;20030;-75
2021/06/30 11:30:00;;;;;;;10.13;6.13;;;15.50;99.90;;;;;;5025434;28;20033;-75
2021/06/30 11:35:10;;;;;;;15.20;5.60;;;15.70;99.90;;;;;;5026873;28;20041;-75
2021/06/30 11:38:00;;;;;;;19.65;6.28;;;15.70;99.90;;;;;;5025598;28;20037;-78
2021/06/30 11:40:38;;;;;;;18.77;6.28;;;15.60;99.90;;;;;;5030376;28;20033;-77
2021/06/30 11:43:17;;;;;;;14.52;6.70;;;15.60;99.90;;;;;;5032099;28;20022;-75
2021/06/30 11:45:44;;;;;;;12.02;6.05;;;15.60;99.90;;;;;;5030596;28;20057;-75
2021/06/30 11:48:12;;;;;;;14.30;5.03;;;15.70;99.90;;;;;;5034760;28;20473;-75
2021/06/30 11:50:56;;;;;;;21.27;7.53;;;15.90;99.90;;;;;;5026725;28;20021;-76
2021/06/30 11:53:36;;;;;;;14.82;6.28;;;15.90;99.90;;;;;;5024842;28;20026;-76
2021/06/30 11:56:03;;;;;;;16.40;6.03;;;15.80;99.90;;;;;;5031836;28;20028;-74
2021/06/30 11:58:51;;;;;;;9.20;6.25;;;15.90;99.90;;;;;;5049544;28;20022;-75
2021/06/30 12:01:28;;;;;;;14.18;6.45;;;16.00;99.90;;;;;;5031795;28;20026;-74
2021/06/30 12:04:06;;;;;;;13.55;4.53;;;16.20;99.90;;;;;;5027935;28;20158;-74
2021/06/30 12:06:33;;;;;;;20.38;5.93;;;16.10;99.90;;;;;;5029512;28;20037;-75
2021/06/30 12:09:07;;;;;;;9.07;5.10;;;16.20;99.90;;;;;;5033975;28;20481;-74
2021/06/30 12:11:35;;;;;;;9.82;6.18;;;16.20;99.90;;;;;;5043476;28;20031;-78
2021/06/30 12:14:08;;;;;;;7.72;4.50;;;16.20;99.90;;;;;;5026760;28;20027;-74
2021/06/30 12:17:00;;;;;;;16.77;5.80;;;16.20;99.90;;;;;;5033473;28;20448;-74
2021/06/30 12:19:42;;;;;;;7.47;3.90;;;16.10;99.90;;;;;;5043681;28;20113;-75
2021/06/30 12:22:20;;;;;;;11.10;4.78;;;16.00;99.90;;;;;;5022294;28;20026;-74
2021/06/30 12:24:49;;;;;;;10.80;3.83;;;16.10;99.90;;;;;;5046689;28;20034;-76
2021/06/30 12:27:15;;;;;;;7.07;4.05;;;16.10;99.90;;;;;;5049526;28;20089;-75
2021/06/30 12:29:41;;;;;;;7.20;3.88;;;16.20;99.90;;;;;;5051333;28;20034;-77
2021/06/30 12:32:14;;;;;;;12.27;4.47;;;16.20;99.90;;;;;;5051749;28;20036;-78
2021/06/30 12:34:42;;;;;;;6.82;3.90;;;16.10;99.90;;;;;;5050127;28;20061;-80
2021/06/30 12:37:08;;;;;;;;;;;16.20;99.90;;;;;;5048940;28;20037;-80
2021/06/30 12:39:36;;;;;;;5.70;3.67;;;16.30;99.90;;;;;;5050954;28;20008;-80
2021/06/30 12:42:08;;;;;;;5.72;3.45;;;16.40;99.90;;;;;;5050276;28;20037;-78
2021/06/30 12:44:58;;;;;;;9.48;3.50;;;16.50;99.90;;;;;;5046608;28;20021;-76
2021/06/30 12:47:25;;;;;;;7.85;4.28;;;16.50;99.90;;;;;;5029442;28;20108;-76
2021/06/30 12:49:59;;;;;;;7.53;3.45;;;16.60;99.90;;;;;;5032901;28;20027;-77
2021/06/30 12:55:14;;;;;;;4.15;3.30;;;16.50;99.90;;;;;;5032327;28;20049;-74
2021/06/30 12:58:00;;;;;;;5.03;3.70;;;16.50;99.90;;;;;;5034815;28;20033;-75
2021/06/30 13:00:30;;;;;;;6.70;3.45;;;16.50;99.90;;;;;;5041495;28;20032;-75